Houston, Texas
Traffic Map
Current Weather Conditions
Houston, Texas
Scattered Clouds
Scattered Clouds
78°
Feels Like: 80°
Wind Chill: 78° Ceiling: Unl
Heat Index: 80° Visibility: 10mi
Dew Point: 71° Wind: 0mph
Humidity: 79% Direction: ° ()
Pressure: 30.04in Gusts: 0mph
Raw Report DataKIAH 291353Z 00000KT 10SM FEW020 SCT250 26/22 A3004 RMK AO2 SLP174 T02560217
Traffic Incident Summary
Active as of:
Severity:
Category:
InformationThere was an issue retrieving the traffic information for this location. Please try a different location or try again shortly.
Advertisements
Track Severe Weather on mobile